sensor_id;sensor_type;location;lat;lon;timestamp;pressure;altitude;pressure_sealevel;temperature;humidity
41654;BME280;68687;52.030;7.110;2023-05-17T00:00:18;101605.22;;;7.69;82.39
41654;BME280;68687;52.030;7.110;2023-05-17T00:02:46;101602.94;;;7.65;82.08
41654;BME280;68687;52.030;7.110;2023-05-17T00:05:12;101601.97;;;7.56;83.87
41654;BME280;68687;52.030;7.110;2023-05-17T00:07:37;101600.69;;;7.51;83.64
41654;BME280;68687;52.030;7.110;2023-05-17T00:10:03;101603.78;;;7.56;84.63
41654;BME280;68687;52.030;7.110;2023-05-17T00:12:28;101593.53;;;7.51;85.02
41654;BME280;68687;52.030;7.110;2023-05-17T00:14:53;101594.78;;;7.47;84.85
41654;BME280;68687;52.030;7.110;2023-05-17T00:17:18;101592.41;;;7.44;85.49
41654;BME280;68687;52.030;7.110;2023-05-17T00:19:50;101598.03;;;7.41;86.14
41654;BME280;68687;52.030;7.110;2023-05-17T00:22:15;101593.78;;;7.38;85.87
41654;BME280;68687;52.030;7.110;2023-05-17T00:24:40;101598.28;;;7.38;85.81
41654;BME280;68687;52.030;7.110;2023-05-17T00:27:06;101584.78;;;7.39;85.91
41654;BME280;68687;52.030;7.110;2023-05-17T00:29:31;101585.78;;;7.29;86.75
41654;BME280;68687;52.030;7.110;2023-05-17T00:31:56;101583.53;;;7.24;87.40
41654;BME280;68687;52.030;7.110;2023-05-17T00:34:21;101577.63;;;7.30;86.10
41654;BME280;68687;52.030;7.110;2023-05-17T00:36:50;101579.03;;;7.25;86.25
41654;BME280;68687;52.030;7.110;2023-05-17T00:39:15;101576.78;;;7.30;85.55
41654;BME280;68687;52.030;7.110;2023-05-17T00:41:40;101587.75;;;7.27;86.61
41654;BME280;68687;52.030;7.110;2023-05-17T00:44:06;101593.50;;;7.32;86.56
41654;BME280;68687;52.030;7.110;2023-05-17T00:46:31;101593.09;;;7.27;85.60
41654;BME280;68687;52.030;7.110;2023-05-17T00:48:57;101589.56;;;7.26;86.01
41654;BME280;68687;52.030;7.110;2023-05-17T00:51:23;101588.31;;;7.21;86.45
41654;BME280;68687;52.030;7.110;2023-05-17T00:53:54;101586.91;;;7.17;86.80
41654;BME280;68687;52.030;7.110;2023-05-17T00:56:20;101586.75;;;7.28;85.93
41654;BME280;68687;52.030;7.110;2023-05-17T00:58:48;101587.59;;;7.28;86.35
41654;BME280;68687;52.030;7.110;2023-05-17T01:01:14;101591.81;;;7.21;87.49
41654;BME280;68687;52.030;7.110;2023-05-17T01:03:39;101583.94;;;7.20;87.11
41654;BME280;68687;52.030;7.110;2023-05-17T01:06:05;101588.16;;;7.32;86.67
41654;BME280;68687;52.030;7.110;2023-05-17T01:08:30;101588.84;;;7.15;87.39
41654;BME280;68687;52.030;7.110;2023-05-17T01:11:13;101595.59;;;7.19;87.95
41654;BME280;68687;52.030;7.110;2023-05-17T01:13:59;101592.63;;;7.12;88.58
41654;BME280;68687;52.030;7.110;2023-05-17T01:16:33;101598.25;;;7.09;88.49
41654;BME280;68687;52.030;7.110;2023-05-17T01:22:09;101603.47;;;7.20;89.00
41654;BME280;68687;52.030;7.110;2023-05-17T01:24:50;101596.88;;;7.24;88.83
41654;BME280;68687;52.030;7.110;2023-05-17T01:27:17;101599.81;;;7.21;89.03
41654;BME280;68687;52.030;7.110;2023-05-17T01:29:45;101598.84;;;7.12;89.45
41654;BME280;68687;52.030;7.110;2023-05-17T01:32:15;101600.81;;;7.20;87.90
41654;BME280;68687;52.030;7.110;2023-05-17T01:34:40;101596.16;;;7.12;88.41
41654;BME280;68687;52.030;7.110;2023-05-17T01:37:12;101595.75;;;7.17;89.28
41654;BME280;68687;52.030;7.110;2023-05-17T01:39:37;101598.50;;;7.06;89.54
41654;BME280;68687;52.030;7.110;2023-05-17T01:42:41;101592.34;;;7.05;90.28
41654;BME280;68687;52.030;7.110;2023-05-17T01:45:26;101600.34;;;7.05;90.12
41654;BME280;68687;52.030;7.110;2023-05-17T01:48:19;101593.75;;;7.09;89.58
41654;BME280;68687;52.030;7.110;2023-05-17T01:50:47;101589.94;;;7.12;89.47
41654;BME280;68687;52.030;7.110;2023-05-17T01:56:03;101595.84;;;7.06;90.62
41654;BME280;68687;52.030;7.110;2023-05-17T01:58:44;101597.81;;;7.04;90.57
41654;BME280;68687;52.030;7.110;2023-05-17T02:01:14;101600.91;;;7.09;90.69
41654;BME280;68687;52.030;7.110;2023-05-17T02:03:41;101596.03;;;7.14;90.74
41654;BME280;68687;52.030;7.110;2023-05-17T02:06:06;101602.34;;;7.23;90.49
41654;BME280;68687;52.030;7.110;2023-05-17T02:08:33;101605.44;;;7.28;90.16
41654;BME280;68687;52.030;7.110;2023-05-17T02:11:01;101601.22;;;7.16;91.39
41654;BME280;68687;52.030;7.110;2023-05-17T02:13:26;101604.75;;;7.16;91.07
41654;BME280;68687;52.030;7.110;2023-05-17T02:15:52;101608.06;;;7.08;91.64
41654;BME280;68687;52.030;7.110;2023-05-17T02:18:20;101613.41;;;7.08;92.06
41654;BME280;68687;52.030;7.110;2023-05-17T02:20:46;101609.75;;;7.09;91.71
41654;BME280;68687;52.030;7.110;2023-05-17T02:23:14;101603.56;;;7.09;91.93
41654;BME280;68687;52.030;7.110;2023-05-17T02:25:46;101613.41;;;7.08;91.53
41654;BME280;68687;52.030;7.110;2023-05-17T02:28:17;101622.69;;;7.04;91.61
41654;BME280;68687;52.030;7.110;2023-05-17T02:30:43;101621.88;;;7.13;91.35
41654;BME280;68687;52.030;7.110;2023-05-17T02:33:16;101633.53;;;7.12;91.36
41654;BME280;68687;52.030;7.110;2023-05-17T02:35:41;101619.44;;;7.01;92.96
41654;BME280;68687;52.030;7.110;2023-05-17T02:38:06;101634.38;;;7.13;92.22
41654;BME280;68687;52.030;7.110;2023-05-17T02:40:31;101636.94;;;7.15;91.28
41654;BME280;68687;52.030;7.110;2023-05-17T02:42:57;101635.66;;;7.19;91.63
41654;BME280;68687;52.030;7.110;2023-05-17T02:45:22;101626.50;;;7.11;91.37
41654;BME280;68687;52.030;7.110;2023-05-17T02:47:50;101630.75;;;7.14;92.02
41654;BME280;68687;52.030;7.110;2023-05-17T02:50:16;101636.31;;;7.11;91.94
41654;BME280;68687;52.030;7.110;2023-05-17T02:52:41;101637.00;;;7.03;92.83
41654;BME280;68687;52.030;7.110;2023-05-17T02:55:06;101645.88;;;7.04;92.64
41654;BME280;68687;52.030;7.110;2023-05-17T02:57:35;101650.94;;;7.07;92.44
41654;BME280;68687;52.030;7.110;2023-05-17T03:00:04;101644.22;;;7.12;92.09
41654;BME280;68687;52.030;7.110;2023-05-17T03:02:30;101641.66;;;7.11;91.58
41654;BME280;68687;52.030;7.110;2023-05-17T03:04:58;101646.97;;;7.01;93.46
41654;BME280;68687;52.030;7.110;2023-05-17T03:07:30;101658.94;;;7.07;92.07
41654;BME280;68687;52.030;7.110;2023-05-17T03:09:58;101651.19;;;7.04;92.53
41654;BME280;68687;52.030;7.110;2023-05-17T03:12:23;101661.19;;;7.11;91.53
41654;BME280;68687;52.030;7.110;2023-05-17T03:14:49;101653.75;;;7.05;92.29
41654;BME280;68687;52.030;7.110;2023-05-17T03:17:14;101659.91;;;6.96;93.22
41654;BME280;68687;52.030;7.110;2023-05-17T03:19:39;101664.81;;;7.01;93.10
41654;BME280;68687;52.030;7.110;2023-05-17T03:22:05;101663.81;;;6.92;92.49
41654;BME280;68687;52.030;7.110;2023-05-17T03:24:30;101665.06;;;6.88;92.06
41654;BME280;68687;52.030;7.110;2023-05-17T03:26:55;101668.00;;;6.85;92.02
41654;BME280;68687;52.030;7.110;2023-05-17T03:29:20;101659.69;;;6.78;91.30
41654;BME280;68687;52.030;7.110;2023-05-17T03:31:46;101674.19;;;6.86;91.48
41654;BME280;68687;52.030;7.110;2023-05-17T03:34:11;101680.63;;;6.83;91.54
41654;BME280;68687;52.030;7.110;2023-05-17T03:36:37;101677.25;;;6.81;91.20
41654;BME280;68687;52.030;7.110;2023-05-17T03:39:03;101680.31;;;6.76;91.10
41654;BME280;68687;52.030;7.110;2023-05-17T03:41:31;101688.84;;;6.70;91.33
41654;BME280;68687;52.030;7.110;2023-05-17T03:43:57;101689.69;;;6.71;90.39
41654;BME280;68687;52.030;7.110;2023-05-17T03:46:22;101693.47;;;6.68;90.45
41654;BME280;68687;52.030;7.110;2023-05-17T03:48:57;101694.59;;;6.66;90.35
41654;BME280;68687;52.030;7.110;2023-05-17T03:51:28;101700.66;;;6.68;89.98
41654;BME280;68687;52.030;7.110;2023-05-17T03:54:00;101701.34;;;6.70;91.30
41654;BME280;68687;52.030;7.110;2023-05-17T03:56:29;101693.03;;;6.63;91.45
41654;BME280;68687;52.030;7.110;2023-05-17T03:58:58;101698.50;;;6.62;91.16
41654;BME280;68687;52.030;7.110;2023-05-17T04:01:23;101695.38;;;6.57;91.97
41654;BME280;68687;52.030;7.110;2023-05-17T04:03:48;101694.91;;;6.51;92.22
41654;BME280;68687;52.030;7.110;2023-05-17T04:06:14;101699.75;;;6.58;92.27
41654;BME280;68687;52.030;7.110;2023-05-17T04:08:40;101710.44;;;6.58;91.79
41654;BME280;68687;52.030;7.110;2023-05-17T04:11:05;101708.34;;;6.61;92.48
41654;BME280;68687;52.030;7.110;2023-05-17T04:13:40;101713.84;;;6.69;91.95
41654;BME280;68687;52.030;7.110;2023-05-17T04:16:06;101718.34;;;6.69;91.60
41654;BME280;68687;52.030;7.110;2023-05-17T04:18:36;101718.22;;;6.70;92.77
41654;BME280;68687;52.030;7.110;2023-05-17T04:21:03;101719.31;;;6.68;92.76
41654;BME280;68687;52.030;7.110;2023-05-17T04:23:30;101722.44;;;6.73;92.50
41654;BME280;68687;52.030;7.110;2023-05-17T04:25:55;101710.06;;;6.72;92.10
41654;BME280;68687;52.030;7.110;2023-05-17T04:28:23;101719.22;;;6.79;92.92
41654;BME280;68687;52.030;7.110;2023-05-17T04:30:48;101727.69;;;6.84;93.33
41654;BME280;68687;52.030;7.110;2023-05-17T04:33:14;101723.09;;;6.86;92.95
41654;BME280;68687;52.030;7.110;2023-05-17T04:35:41;101730.72;;;7.00;92.44
41654;BME280;68687;52.030;7.110;2023-05-17T04:38:25;101739.19;;;7.05;93.07
41654;BME280;68687;52.030;7.110;2023-05-17T04:40:50;101734.47;;;7.19;91.76
41654;BME280;68687;52.030;7.110;2023-05-17T04:43:15;101733.91;;;7.25;91.72
41654;BME280;68687;52.030;7.110;2023-05-17T04:45:41;101746.03;;;7.29;91.48
41654;BME280;68687;52.030;7.110;2023-05-17T04:48:06;101742.72;;;7.46;91.31
41654;BME280;68687;52.030;7.110;2023-05-17T04:50:32;101754.28;;;7.66;90.35
41654;BME280;68687;52.030;7.110;2023-05-17T04:52:57;101753.72;;;7.62;90.18
41654;BME280;68687;52.030;7.110;2023-05-17T04:55:23;101767.22;;;7.61;89.69
41654;BME280;68687;52.030;7.110;2023-05-17T04:57:48;101767.78;;;7.64;89.40
41654;BME280;68687;52.030;7.110;2023-05-17T05:00:14;101772.00;;;7.67;89.33
41654;BME280;68687;52.030;7.110;2023-05-17T05:02:40;101781.84;;;7.66;89.42
41654;BME280;68687;52.030;7.110;2023-05-17T05:05:06;101785.13;;;7.70;89.37
41654;BME280;68687;52.030;7.110;2023-05-17T05:07:31;101785.84;;;7.91;88.09
41654;BME280;68687;52.030;7.110;2023-05-17T05:09:57;101786.16;;;8.07;87.68
41654;BME280;68687;52.030;7.110;2023-05-17T05:12:23;101779.56;;;8.21;87.30
41654;BME280;68687;52.030;7.110;2023-05-17T05:14:48;101778.91;;;8.39;86.82
41654;BME280;68687;52.030;7.110;2023-05-17T05:17:14;101792.69;;;8.44;86.10
41654;BME280;68687;52.030;7.110;2023-05-17T05:19:39;101788.44;;;8.70;84.31
41654;BME280;68687;52.030;7.110;2023-05-17T05:22:04;101794.06;;;8.86;84.40
41654;BME280;68687;52.030;7.110;2023-05-17T05:24:30;101795.97;;;9.04;82.50
41654;BME280;68687;52.030;7.110;2023-05-17T05:26:55;101799.53;;;9.04;83.48
41654;BME280;68687;52.030;7.110;2023-05-17T05:29:20;101805.50;;;9.35;82.60
41654;BME280;68687;52.030;7.110;2023-05-17T05:31:46;101809.19;;;9.24;80.54
41654;BME280;68687;52.030;7.110;2023-05-17T05:34:14;101813.38;;;9.37;80.73
41654;BME280;68687;52.030;7.110;2023-05-17T05:36:45;101810.91;;;9.53;80.32
41654;BME280;68687;52.030;7.110;2023-05-17T05:39:14;101811.56;;;9.65;79.09
41654;BME280;68687;52.030;7.110;2023-05-17T05:41:40;101818.56;;;9.75;79.19
41654;BME280;68687;52.030;7.110;2023-05-17T05:44:05;101821.84;;;9.97;77.44
41654;BME280;68687;52.030;7.110;2023-05-17T05:46:30;101814.31;;;10.00;77.57
41654;BME280;68687;52.030;7.110;2023-05-17T05:48:56;101816.09;;;10.09;76.54
41654;BME280;68687;52.030;7.110;2023-05-17T05:51:21;101808.09;;;10.27;76.11
41654;BME280;68687;52.030;7.110;2023-05-17T05:53:46;101814.16;;;10.47;74.55
41654;BME280;68687;52.030;7.110;2023-05-17T05:56:17;101823.28;;;10.54;73.25
41654;BME280;68687;52.030;7.110;2023-05-17T05:58:43;101826.59;;;10.48;72.55
41654;BME280;68687;52.030;7.110;2023-05-17T06:01:09;101834.41;;;10.59;73.68
41654;BME280;68687;52.030;7.110;2023-05-17T06:03:34;101839.47;;;10.62;71.46
41654;BME280;68687;52.030;7.110;2023-05-17T06:05:59;101855.50;;;10.72;71.08
41654;BME280;68687;52.030;7.110;2023-05-17T06:08:25;101850.34;;;10.78;69.83
41654;BME280;68687;52.030;7.110;2023-05-17T06:10:50;101844.22;;;10.68;69.74
41654;BME280;68687;52.030;7.110;2023-05-17T06:13:18;101858.53;;;10.95;70.27
41654;BME280;68687;52.030;7.110;2023-05-17T06:15:43;101853.56;;;11.00;69.00
41654;BME280;68687;52.030;7.110;2023-05-17T06:18:09;101860.84;;;10.90;68.25
41654;BME280;68687;52.030;7.110;2023-05-17T06:20:34;101862.78;;;10.79;69.06
41654;BME280;68687;52.030;7.110;2023-05-17T06:22:59;101862.94;;;10.42;69.49
41654;BME280;68687;52.030;7.110;2023-05-17T06:25:26;101870.94;;;10.52;69.18
41654;BME280;68687;52.030;7.110;2023-05-17T06:27:51;101872.59;;;10.53;70.25
41654;BME280;68687;52.030;7.110;2023-05-17T06:30:16;101875.31;;;10.71;67.59
41654;BME280;68687;52.030;7.110;2023-05-17T06:32:42;101874.72;;;11.03;67.25
41654;BME280;68687;52.030;7.110;2023-05-17T06:35:07;101879.13;;;10.86;66.94
41654;BME280;68687;52.030;7.110;2023-05-17T06:37:33;101879.06;;;10.78;66.61
41654;BME280;68687;52.030;7.110;2023-05-17T06:40:07;101878.97;;;10.88;67.97
41654;BME280;68687;52.030;7.110;2023-05-17T06:42:34;101884.88;;;10.91;66.86
41654;BME280;68687;52.030;7.110;2023-05-17T06:45:00;101896.84;;;10.61;64.58
41654;BME280;68687;52.030;7.110;2023-05-17T06:47:25;101894.84;;;10.63;65.69
41654;BME280;68687;52.030;7.110;2023-05-17T06:49:50;101894.09;;;10.53;65.71
41654;BME280;68687;52.030;7.110;2023-05-17T06:52:16;101887.03;;;10.52;65.37
41654;BME280;68687;52.030;7.110;2023-05-17T06:54:41;101895.41;;;10.49;64.85
41654;BME280;68687;52.030;7.110;2023-05-17T06:57:07;101896.38;;;10.48;65.33
41654;BME280;68687;52.030;7.110;2023-05-17T06:59:34;101901.38;;;10.15;65.58
41654;BME280;68687;52.030;7.110;2023-05-17T07:01:59;101899.38;;;10.45;64.72
41654;BME280;68687;52.030;7.110;2023-05-17T07:04:28;101895.94;;;10.70;65.48
41654;BME280;68687;52.030;7.110;2023-05-17T07:06:53;101883.13;;;11.00;63.21
41654;BME280;68687;52.030;7.110;2023-05-17T07:09:25;101898.13;;;10.93;61.11
41654;BME280;68687;52.030;7.110;2023-05-17T07:11:50;101889.41;;;10.91;59.67
41654;BME280;68687;52.030;7.110;2023-05-17T07:14:15;101900.81;;;10.93;60.08
41654;BME280;68687;52.030;7.110;2023-05-17T07:16:41;101899.28;;;11.08;59.57
41654;BME280;68687;52.030;7.110;2023-05-17T07:19:09;101902.25;;;11.23;58.99
41654;BME280;68687;52.030;7.110;2023-05-17T07:21:34;101889.72;;;11.31;58.71
41654;BME280;68687;52.030;7.110;2023-05-17T07:24:03;101908.31;;;11.76;57.55
41654;BME280;68687;52.030;7.110;2023-05-17T07:26:31;101901.84;;;11.87;56.98
41654;BME280;68687;52.030;7.110;2023-05-17T07:28:56;101906.56;;;11.67;56.54
41654;BME280;68687;52.030;7.110;2023-05-17T07:31:25;101910.47;;;11.73;57.31
41654;BME280;68687;52.030;7.110;2023-05-17T07:33:50;101910.31;;;11.74;56.27
41654;BME280;68687;52.030;7.110;2023-05-17T07:36:16;101910.75;;;11.62;56.55
41654;BME280;68687;52.030;7.110;2023-05-17T07:38:41;101916.16;;;11.70;55.35
41654;BME280;68687;52.030;7.110;2023-05-17T07:41:09;101920.00;;;11.59;55.00
41654;BME280;68687;52.030;7.110;2023-05-17T07:43:40;101914.69;;;12.01;54.17
41654;BME280;68687;52.030;7.110;2023-05-17T07:46:05;101913.75;;;11.59;55.07
41654;BME280;68687;52.030;7.110;2023-05-17T07:48:30;101918.94;;;11.52;54.09
41654;BME280;68687;52.030;7.110;2023-05-17T07:51:05;101931.91;;;11.57;54.33
41654;BME280;68687;52.030;7.110;2023-05-17T07:53:30;101928.72;;;11.35;54.26
41654;BME280;68687;52.030;7.110;2023-05-17T07:55:58;101934.13;;;11.18;55.75
41654;BME280;68687;52.030;7.110;2023-05-17T07:58:24;101941.66;;;11.32;54.55
41654;BME280;68687;52.030;7.110;2023-05-17T08:00:49;101943.31;;;11.51;54.68
41654;BME280;68687;52.030;7.110;2023-05-17T08:03:21;101952.34;;;11.50;53.45
41654;BME280;68687;52.030;7.110;2023-05-17T08:05:56;101958.00;;;11.64;54.36
41654;BME280;68687;52.030;7.110;2023-05-17T08:08:22;101962.13;;;11.51;52.44
41654;BME280;68687;52.030;7.110;2023-05-17T08:10:47;101953.59;;;11.37;52.88
41654;BME280;68687;52.030;7.110;2023-05-17T08:13:13;101951.06;;;11.54;51.99
41654;BME280;68687;52.030;7.110;2023-05-17T08:15:39;101949.75;;;11.84;51.14
41654;BME280;68687;52.030;7.110;2023-05-17T08:18:07;101950.56;;;12.10;50.64
41654;BME280;68687;52.030;7.110;2023-05-17T08:20:32;101952.19;;;11.77;50.50
41654;BME280;68687;52.030;7.110;2023-05-17T08:22:57;101954.31;;;12.25;50.80
41654;BME280;68687;52.030;7.110;2023-05-17T08:25:26;101957.66;;;11.85;49.95
41654;BME280;68687;52.030;7.110;2023-05-17T08:27:51;101959.00;;;11.81;51.40
41654;BME280;68687;52.030;7.110;2023-05-17T08:30:19;101966.56;;;11.60;50.45
41654;BME280;68687;52.030;7.110;2023-05-17T08:32:47;101965.91;;;11.84;51.09
41654;BME280;68687;52.030;7.110;2023-05-17T08:35:22;101957.56;;;12.37;50.35
41654;BME280;68687;52.030;7.110;2023-05-17T08:37:47;101952.28;;;12.86;47.85
41654;BME280;68687;52.030;7.110;2023-05-17T08:40:12;101958.94;;;12.41;48.46
41654;BME280;68687;52.030;7.110;2023-05-17T08:42:45;101966.50;;;12.37;48.89
41654;BME280;68687;52.030;7.110;2023-05-17T08:45:13;101965.00;;;12.51;48.34
41654;BME280;68687;52.030;7.110;2023-05-17T08:47:40;101954.56;;;13.23;49.22
41654;BME280;68687;52.030;7.110;2023-05-17T08:50:07;101960.78;;;13.23;46.65
41654;BME280;68687;52.030;7.110;2023-05-17T08:52:36;101965.66;;;13.36;46.42
41654;BME280;68687;52.030;7.110;2023-05-17T08:55:05;101954.38;;;13.41;46.45
41654;BME280;68687;52.030;7.110;2023-05-17T08:57:33;101975.94;;;13.16;46.91
41654;BME280;68687;52.030;7.110;2023-05-17T09:00:02;101973.88;;;12.94;46.94
41654;BME280;68687;52.030;7.110;2023-05-17T09:02:31;101979.56;;;12.83;45.90
41654;BME280;68687;52.030;7.110;2023-05-17T09:04:57;101975.84;;;12.76;45.78
41654;BME280;68687;52.030;7.110;2023-05-17T09:07:31;101986.59;;;13.18;44.99
41654;BME280;68687;52.030;7.110;2023-05-17T09:09:57;101978.22;;;14.01;44.14
41654;BME280;68687;52.030;7.110;2023-05-17T09:12:22;101981.00;;;13.52;43.74
41654;BME280;68687;52.030;7.110;2023-05-17T09:14:48;101981.31;;;13.65;43.22
41654;BME280;68687;52.030;7.110;2023-05-17T09:17:18;101978.59;;;13.81;43.44
41654;BME280;68687;52.030;7.110;2023-05-17T09:19:47;101977.47;;;13.43;43.93
41654;BME280;68687;52.030;7.110;2023-05-17T09:22:17;101984.94;;;14.13;43.70
41654;BME280;68687;52.030;7.110;2023-05-17T09:24:42;101974.75;;;14.31;41.69
41654;BME280;68687;52.030;7.110;2023-05-17T09:27:08;101977.75;;;13.81;39.90
41654;BME280;68687;52.030;7.110;2023-05-17T09:29:38;101968.97;;;14.73;41.18
41654;BME280;68687;52.030;7.110;2023-05-17T09:32:17;101973.56;;;15.19;42.70
41654;BME280;68687;52.030;7.110;2023-05-17T09:34:50;101972.22;;;14.69;39.77
41654;BME280;68687;52.030;7.110;2023-05-17T09:37:17;101969.88;;;14.66;40.60
41654;BME280;68687;52.030;7.110;2023-05-17T09:39:45;101971.56;;;14.28;41.27
41654;BME280;68687;52.030;7.110;2023-05-17T09:42:11;101960.00;;;14.81;39.74
41654;BME280;68687;52.030;7.110;2023-05-17T09:44:51;101971.44;;;14.13;41.59
41654;BME280;68687;52.030;7.110;2023-05-17T09:47:25;101976.81;;;14.13;41.04
41654;BME280;68687;52.030;7.110;2023-05-17T09:49:59;101981.97;;;15.01;39.97
41654;BME280;68687;52.030;7.110;2023-05-17T09:52:26;101971.13;;;15.09;39.50
41654;BME280;68687;52.030;7.110;2023-05-17T09:54:59;101968.97;;;14.73;40.13
41654;BME280;68687;52.030;7.110;2023-05-17T09:57:26;101970.19;;;15.17;39.23
41654;BME280;68687;52.030;7.110;2023-05-17T09:59:56;101973.94;;;14.62;40.00
41654;BME280;68687;52.030;7.110;2023-05-17T10:02:27;101967.28;;;14.72;40.38
41654;BME280;68687;52.030;7.110;2023-05-17T10:04:55;101969.13;;;14.80;40.65
41654;BME280;68687;52.030;7.110;2023-05-17T10:07:21;101966.66;;;14.23;41.25
41654;BME280;68687;52.030;7.110;2023-05-17T10:09:53;101970.19;;;14.32;42.00
41654;BME280;68687;52.030;7.110;2023-05-17T10:12:21;101979.34;;;14.62;42.38
41654;BME280;68687;52.030;7.110;2023-05-17T10:14:51;101974.06;;;14.29;39.42
41654;BME280;68687;52.030;7.110;2023-05-17T10:17:17;101980.50;;;14.67;39.49
41654;BME280;68687;52.030;7.110;2023-05-17T10:19:43;101971.41;;;14.91;40.42
41654;BME280;68687;52.030;7.110;2023-05-17T10:22:10;101975.06;;;14.98;38.98
41654;BME280;68687;52.030;7.110;2023-05-17T10:24:36;101985.50;;;14.47;39.29
41654;BME280;68687;52.030;7.110;2023-05-17T10:27:02;101979.91;;;14.49;38.96
41654;BME280;68687;52.030;7.110;2023-05-17T10:29:29;101986.69;;;13.98;40.47
41654;BME280;68687;52.030;7.110;2023-05-17T10:32:02;101973.09;;;14.61;41.09
41654;BME280;68687;52.030;7.110;2023-05-17T10:34:37;101983.16;;;14.75;39.25
41654;BME280;68687;52.030;7.110;2023-05-17T10:37:03;101974.97;;;15.52;38.79
41654;BME280;68687;52.030;7.110;2023-05-17T10:39:30;101978.25;;;15.25;39.07
41654;BME280;68687;52.030;7.110;2023-05-17T10:41:59;101976.00;;;15.05;37.90
41654;BME280;68687;52.030;7.110;2023-05-17T10:44:26;101968.56;;;14.84;40.15
41654;BME280;68687;52.030;7.110;2023-05-17T10:46:58;101967.75;;;14.84;39.41
41654;BME280;68687;52.030;7.110;2023-05-17T10:49:25;101963.63;;;14.65;39.34
41654;BME280;68687;52.030;7.110;2023-05-17T10:51:53;101963.03;;;15.24;38.13
41654;BME280;68687;52.030;7.110;2023-05-17T10:54:35;101956.94;;;15.67;39.72
41654;BME280;68687;52.030;7.110;2023-05-17T10:57:04;101955.59;;;15.26;38.07
41654;BME280;68687;52.030;7.110;2023-05-17T10:59:30;101954.63;;;14.96;39.00
41654;BME280;68687;52.030;7.110;2023-05-17T11:01:58;101958.31;;;14.80;37.94
41654;BME280;68687;52.030;7.110;2023-05-17T11:04:43;101959.97;;;14.58;38.94
41654;BME280;68687;52.030;7.110;2023-05-17T11:07:21;101965.31;;;14.66;38.04
41654;BME280;68687;52.030;7.110;2023-05-17T11:12:30;101955.34;;;14.90;37.70
41654;BME280;68687;52.030;7.110;2023-05-17T11:14:59;101950.97;;;15.11;38.94
41654;BME280;68687;52.030;7.110;2023-05-17T11:22:49;101939.25;;;15.19;38.25
41654;BME280;68687;52.030;7.110;2023-05-17T11:25:14;101955.38;;;15.12;39.33
41654;BME280;68687;52.030;7.110;2023-05-17T11:27:45;101956.88;;;14.22;40.09
41654;BME280;68687;52.030;7.110;2023-05-17T11:30:30;101948.03;;;14.36;40.56
41654;BME280;68687;52.030;7.110;2023-05-17T11:33:00;101947.91;;;14.21;40.67
41654;BME280;68687;52.030;7.110;2023-05-17T11:35:42;101948.94;;;14.20;39.54
41654;BME280;68687;52.030;7.110;2023-05-17T11:38:18;101950.38;;;14.47;39.87
41654;BME280;68687;52.030;7.110;2023-05-17T11:40:45;101943.84;;;15.86;37.89
41654;BME280;68687;52.030;7.110;2023-05-17T11:43:21;101945.53;;;15.87;36.32
41654;BME280;68687;52.030;7.110;2023-05-17T11:45:58;101945.25;;;15.82;38.17
41654;BME280;68687;52.030;7.110;2023-05-17T11:48:26;101941.81;;;15.35;38.35
41654;BME280;68687;52.030;7.110;2023-05-17T11:50:54;101948.94;;;15.13;39.08
41654;BME280;68687;52.030;7.110;2023-05-17T11:53:24;101954.72;;;14.57;40.09
41654;BME280;68687;52.030;7.110;2023-05-17T11:55:52;101943.72;;;14.89;40.25
41654;BME280;68687;52.030;7.110;2023-05-17T11:58:25;101944.06;;;14.86;41.13
41654;BME280;68687;52.030;7.110;2023-05-17T12:00:52;101945.31;;;14.98;39.52
41654;BME280;68687;52.030;7.110;2023-05-17T12:03:27;101940.53;;;15.08;39.27
41654;BME280;68687;52.030;7.110;2023-05-17T12:06:12;101946.81;;;14.47;38.91
41654;BME280;68687;52.030;7.110;2023-05-17T12:08:44;101951.75;;;14.35;38.59
41654;BME280;68687;52.030;7.110;2023-05-17T12:11:12;101957.44;;;14.48;39.31
41654;BME280;68687;52.030;7.110;2023-05-17T12:13:39;101952.69;;;14.59;39.86
41654;BME280;68687;52.030;7.110;2023-05-17T12:16:11;101952.22;;;14.55;40.57
41654;BME280;68687;52.030;7.110;2023-05-17T12:18:38;101952.03;;;14.09;39.75
41654;BME280;68687;52.030;7.110;2023-05-17T12:21:08;101951.22;;;14.01;39.66
41654;BME280;68687;52.030;7.110;2023-05-17T12:23:38;101954.69;;;14.17;41.45
41654;BME280;68687;52.030;7.110;2023-05-17T12:26:09;101963.69;;;14.10;40.81
41654;BME280;68687;52.030;7.110;2023-05-17T12:28:36;101950.69;;;14.05;41.51
41654;BME280;68687;52.030;7.110;2023-05-17T12:31:03;101961.69;;;13.96;41.27
41654;BME280;68687;52.030;7.110;2023-05-17T12:33:37;101964.06;;;13.90;41.49
41654;BME280;68687;52.030;7.110;2023-05-17T12:36:06;101951.84;;;14.11;42.66
41654;BME280;68687;52.030;7.110;2023-05-17T12:38:38;101949.19;;;14.03;40.61
41654;BME280;68687;52.030;7.110;2023-05-17T12:41:05;101950.44;;;13.84;39.93
41654;BME280;68687;52.030;7.110;2023-05-17T12:43:36;101954.16;;;14.22;41.02
41654;BME280;68687;52.030;7.110;2023-05-17T12:46:06;101953.09;;;14.39;39.20
41654;BME280;68687;52.030;7.110;2023-05-17T12:48:40;101947.53;;;13.93;39.45
41654;BME280;68687;52.030;7.110;2023-05-17T12:51:07;101952.97;;;13.69;40.76
41654;BME280;68687;52.030;7.110;2023-05-17T12:53:37;101948.44;;;14.17;41.53
41654;BME280;68687;52.030;7.110;2023-05-17T12:56:02;101951.66;;;13.73;40.77
41654;BME280;68687;52.030;7.110;2023-05-17T12:58:28;101949.09;;;14.27;41.39
41654;BME280;68687;52.030;7.110;2023-05-17T13:00:57;101947.97;;;14.13;41.38
41654;BME280;68687;52.030;7.110;2023-05-17T13:03:26;101947.03;;;14.37;41.13
41654;BME280;68687;52.030;7.110;2023-05-17T13:06:03;101947.44;;;14.18;40.77
41654;BME280;68687;52.030;7.110;2023-05-17T13:08:35;101950.13;;;14.18;41.34
41654;BME280;68687;52.030;7.110;2023-05-17T13:11:12;101946.75;;;13.77;40.61
41654;BME280;68687;52.030;7.110;2023-05-17T13:13:41;101951.63;;;13.81;42.56